createdAt,value
2018-03-20T00:00:06.132Z,1.3
2018-03-20T00:01:15.669Z,1.35
2018-03-20T00:02:25.456Z,1.35
2018-03-20T00:03:35.249Z,1.35
2018-03-20T00:04:45.327Z,1.24
2018-03-20T00:05:55.406Z,1.32
2018-03-20T00:07:05.225Z,1.28
2018-03-20T00:08:15.030Z,1.29
2018-03-20T00:09:25.093Z,1.3
2018-03-20T00:10:35.166Z,1.3
2018-03-20T00:11:44.960Z,1.3
2018-03-20T00:12:54.747Z,1.29
2018-03-20T00:14:04.554Z,1.24
2018-03-20T00:15:14.099Z,1.29
2018-03-20T00:16:24.142Z,1.29
2018-03-20T00:17:34.196Z,1.32
2018-03-20T00:18:43.724Z,1.3
2018-03-20T00:19:53.512Z,1.33
2018-03-20T00:21:03.344Z,1.3
2018-03-20T00:22:13.145Z,1.28
2018-03-20T00:23:22.923Z,1.24
2018-03-20T00:24:32.843Z,1.2
2018-03-20T00:25:42.915Z,1.21
2018-03-20T00:26:52.438Z,1.28
2018-03-20T00:28:02.252Z,1.24
2018-03-20T00:29:12.056Z,1.29
2018-03-20T00:30:21.934Z,1.26
2018-03-20T00:31:31.997Z,1.3
2018-03-20T00:32:41.307Z,1.22
2018-03-20T00:33:51.390Z,1.33
2018-03-20T00:35:00.920Z,1.33
2018-03-20T00:36:10.719Z,1.3
2018-03-20T00:37:20.243Z,1.36
2018-03-20T00:38:30.039Z,1.36
2018-03-20T00:39:39.853Z,1.33
2018-03-20T00:40:49.663Z,1.36
2018-03-20T00:41:59.722Z,1.36
2018-03-20T00:43:09.248Z,1.36
2018-03-20T00:44:19.040Z,1.35
2018-03-20T00:45:28.841Z,1.33
2018-03-20T00:46:38.381Z,1.3
2018-03-20T00:47:47.979Z,1.33
2018-03-20T00:48:57.773Z,1.47
2018-03-20T00:50:07.866Z,1.42
2018-03-20T00:51:17.918Z,1.39
2018-03-20T00:52:27.712Z,1.47
2018-03-20T00:53:37.844Z,1.4
2018-03-20T00:54:47.364Z,1.42
2018-03-20T00:55:57.411Z,1.42
2018-03-20T00:57:07.220Z,1.5
2018-03-20T00:58:16.483Z,1.47
2018-03-20T00:59:26.018Z,1.54
2018-03-20T01:00:36.088Z,1.44
2018-03-20T01:01:45.617Z,1.56
2018-03-20T01:02:55.152Z,1.53
2018-03-20T01:04:04.963Z,1.44
2018-03-20T01:05:14.817Z,1.47
2018-03-20T01:06:24.882Z,1.54
2018-03-20T01:07:34.956Z,1.42
2018-03-20T01:08:44.550Z,1.47
2018-03-20T01:09:54.626Z,1.46
2018-03-20T01:11:04.193Z,1.48
2018-03-20T01:12:13.976Z,1.48
2018-03-20T01:13:23.779Z,1.47
2018-03-20T01:14:33.885Z,1.47
2018-03-20T01:15:43.946Z,1.42
2018-03-20T01:16:53.797Z,1.44
2018-03-20T01:18:03.335Z,1.42
2018-03-20T01:19:13.121Z,1.39
2018-03-20T01:20:22.919Z,1.36
2018-03-20T01:21:32.986Z,1.3
2018-03-20T01:22:43.052Z,1.3
2018-03-20T01:23:52.848Z,1.32
2018-03-20T01:25:02.643Z,1.33
2018-03-20T01:26:12.937Z,1.3
2018-03-20T01:27:22.715Z,1.26
2018-03-20T01:28:32.766Z,1.28
2018-03-20T01:29:42.834Z,1.33
2018-03-20T01:30:52.910Z,1.32
2018-03-20T01:32:02.697Z,1.32
2018-03-20T01:33:12.739Z,1.36
2018-03-20T01:34:22.854Z,1.32
2018-03-20T01:35:32.921Z,1.3
2018-03-20T01:36:42.973Z,1.33
2018-03-20T01:37:53.042Z,1.32
2018-03-20T01:39:02.822Z,1.32
2018-03-20T01:40:12.924Z,1.26
2018-03-20T01:41:22.986Z,1.26
2018-03-20T01:42:33.041Z,1.28
2018-03-20T01:43:42.583Z,1.24
2018-03-20T01:44:52.622Z,1.17
2018-03-20T01:46:02.932Z,1.2
2018-03-20T01:47:13.006Z,1.17
2018-03-20T01:48:23.059Z,1.17
2018-03-20T01:49:33.134Z,1.17
2018-03-20T01:50:43.193Z,1.2
2018-03-20T01:51:53.306Z,1.18
2018-03-20T01:53:03.108Z,1.28
2018-03-20T01:54:12.924Z,1.24
2018-03-20T01:55:22.724Z,1.22
2018-03-20T01:56:32.252Z,1.29
2018-03-20T01:57:42.055Z,1.33
2018-03-20T01:58:52.116Z,1.21
2018-03-20T02:00:02.176Z,1.24
2018-03-20T02:01:11.957Z,1.26
2018-03-20T02:02:21.742Z,1.22
2018-03-20T02:03:31.827Z,1.24
2018-03-20T02:04:41.897Z,1.3
2018-03-20T02:05:51.706Z,1.17
2018-03-20T02:07:01.760Z,1.24
2018-03-20T02:08:11.815Z,1.21
2018-03-20T02:09:21.863Z,1.3
2018-03-20T02:10:31.914Z,1.3
2018-03-20T02:11:41.701Z,1.28
2018-03-20T02:12:51.237Z,1.32
2018-03-20T02:14:01.010Z,1.22
2018-03-20T02:15:11.139Z,1.32
2018-03-20T02:16:20.926Z,1.3
2018-03-20T02:17:31.015Z,1.3
2018-03-20T02:18:40.838Z,1.21
2018-03-20T02:19:50.888Z,1.22
2018-03-20T02:21:00.946Z,1.29
2018-03-20T02:22:10.731Z,1.33
2018-03-20T02:23:20.798Z,1.3
2018-03-20T02:24:30.590Z,1.32
2018-03-20T02:25:40.378Z,1.18
2018-03-20T02:26:50.493Z,1.24
2018-03-20T02:28:00.562Z,1.21
2018-03-20T02:29:10.706Z,1.28
2018-03-20T02:30:20.765Z,1.24
2018-03-20T02:31:30.841Z,1.22
2018-03-20T02:32:40.694Z,1.33
2018-03-20T02:33:50.544Z,1.33
2018-03-20T02:35:00.625Z,1.35
2018-03-20T02:36:10.422Z,1.28
2018-03-20T02:37:20.231Z,1.3
2018-03-20T02:38:30.353Z,1.24
2018-03-20T02:39:40.143Z,1.28
2018-03-20T02:40:50.189Z,1.21
2018-03-20T02:42:00.257Z,1.17
2018-03-20T02:43:10.305Z,1.2
2018-03-20T02:44:20.361Z,1.2
2018-03-20T02:45:30.430Z,1.21
2018-03-20T02:46:40.246Z,1.18
2018-03-20T02:47:50.035Z,1.21
2018-03-20T02:49:00.098Z,1.21
2018-03-20T02:50:10.175Z,1.2
2018-03-20T02:51:20.250Z,1.21
2018-03-20T02:52:30.342Z,1.22
2018-03-20T02:53:40.409Z,1.2
2018-03-20T02:54:50.207Z,1.2
2018-03-20T02:56:00.048Z,1.2
2018-03-20T02:57:10.129Z,1.2
2018-03-20T02:58:20.196Z,1.18
2018-03-20T02:59:30.276Z,1.24
2018-03-20T03:00:40.083Z,1.2
2018-03-20T03:01:50.253Z,1.24
2018-03-20T03:03:00.309Z,1.21
2018-03-20T03:04:10.161Z,1.3
2018-03-20T03:05:20.224Z,1.28
2018-03-20T03:06:29.773Z,1.22
2018-03-20T03:07:39.637Z,1.21
2018-03-20T03:39:27.853Z,-1.27
2018-03-20T03:40:37.391Z,-1.28
2018-03-20T03:41:47.157Z,-1.27
2018-03-20T03:42:56.679Z,-1.27
2018-03-20T03:44:05.940Z,-1.27
2018-03-20T03:45:16.078Z,-1.11
2018-03-20T03:46:25.858Z,-0.89
2018-03-20T03:47:35.896Z,-0.77
2018-03-20T03:48:45.939Z,-0.62
2018-03-20T03:49:56.001Z,-0.46
2018-03-20T03:51:06.054Z,-0.36
2018-03-20T03:52:16.115Z,-0.16
2018-03-20T03:53:25.933Z,-0.12
2018-03-20T03:54:35.737Z,0.09
2018-03-20T03:55:45.791Z,0.16
2018-03-20T03:56:55.912Z,0.23
2018-03-20T03:58:05.975Z,0.41
2018-03-20T03:59:15.779Z,0.47
2018-03-20T04:00:25.835Z,0.53
2018-03-20T04:01:35.899Z,0.6
2018-03-20T04:02:45.749Z,0.67
2018-03-20T04:03:55.810Z,0.85
2018-03-20T04:05:05.602Z,0.9
2018-03-20T04:06:15.416Z,0.89
2018-03-20T04:07:25.205Z,0.92
2018-03-20T04:08:35.278Z,1
2018-03-20T04:09:45.335Z,1.02
2018-03-20T04:10:55.389Z,1.1
2018-03-20T04:12:05.457Z,1.1
2018-03-20T04:13:15.268Z,1.2
2018-03-20T04:14:25.331Z,1.14
2018-03-20T04:15:35.390Z,1.21
2018-03-20T04:16:45.456Z,1.18
2018-03-20T04:17:55.510Z,1.21
2018-03-20T04:19:05.579Z,1.18
2018-03-20T04:20:15.364Z,1.2
2018-03-20T04:21:25.155Z,1.15
2018-03-20T04:22:34.961Z,1.2
2018-03-20T04:23:45.006Z,1.24
2018-03-20T04:24:55.069Z,1.18
2018-03-20T04:26:05.136Z,1.22
2018-03-20T04:27:15.212Z,1.33
2018-03-20T04:28:25.270Z,1.21
2018-03-20T04:29:35.351Z,1.22
2018-03-20T04:30:45.418Z,1.18
2018-03-20T04:31:54.961Z,1.2
2018-03-20T04:33:05.089Z,1.24
2018-03-20T04:34:14.899Z,1.2
2018-03-20T04:35:25.012Z,1.35
2018-03-20T04:36:35.073Z,1.33
2018-03-20T04:37:45.155Z,1.33
2018-03-20T04:38:54.960Z,1.33
2018-03-20T04:40:05.039Z,1.36
2018-03-20T04:41:15.106Z,1.36
2018-03-20T04:42:25.148Z,1.44
2018-03-20T04:43:35.255Z,1.44
2018-03-20T04:44:45.324Z,1.5
2018-03-20T04:45:55.403Z,1.4
2018-03-20T04:47:05.460Z,1.39
2018-03-20T04:48:15.556Z,1.38
2018-03-20T04:49:25.364Z,1.36
2018-03-20T04:50:35.166Z,1.4
2018-03-20T04:51:45.222Z,1.42
2018-03-20T04:52:55.281Z,1.46
2018-03-20T04:54:05.339Z,1.42
2018-03-20T04:55:15.454Z,1.46
2018-03-20T04:56:25.525Z,1.42
2018-03-20T04:57:35.567Z,1.44
2018-03-20T04:58:45.603Z,1.36
2018-03-20T04:59:55.732Z,1.4
2018-03-20T05:01:05.561Z,1.42
2018-03-20T05:02:15.370Z,1.4
2018-03-20T05:03:25.180Z,1.47
2018-03-20T05:04:35.267Z,1.46
2018-03-20T05:05:45.320Z,1.42
2018-03-20T05:06:55.370Z,1.48
2018-03-20T05:08:05.193Z,1.51
2018-03-20T05:09:15.257Z,1.53
2018-03-20T05:10:25.314Z,1.46
2018-03-20T05:11:35.376Z,1.56
2018-03-20T05:12:45.253Z,1.57
2018-03-20T05:13:55.310Z,1.65
2018-03-20T05:15:05.374Z,1.64
2018-03-20T05:16:15.417Z,1.6
2018-03-20T05:17:25.480Z,1.6
2018-03-20T05:18:35.598Z,1.61
2018-03-20T05:19:45.654Z,1.54
2018-03-20T05:20:55.697Z,1.61
2018-03-20T05:22:05.751Z,1.58
2018-03-20T05:23:15.835Z,1.61
2018-03-20T05:24:25.908Z,1.61
2018-03-20T05:25:35.990Z,1.56
2018-03-20T05:26:46.050Z,1.61
2018-03-20T05:27:55.586Z,1.56
2018-03-20T05:29:05.644Z,1.47
2018-03-20T05:30:15.765Z,1.5
2018-03-20T05:31:25.832Z,1.46
2018-03-20T05:32:35.619Z,1.44
2018-03-20T05:33:45.700Z,1.53
2018-03-20T05:34:55.495Z,1.57
2018-03-20T05:36:05.550Z,1.61
2018-03-20T05:37:15.611Z,1.64
2018-03-20T05:38:25.502Z,1.58
2018-03-20T05:39:35.604Z,1.65
2018-03-20T05:40:45.678Z,1.68
2018-03-20T05:41:55.393Z,1.57
2018-03-20T05:43:05.494Z,1.64
2018-03-20T05:44:15.551Z,1.65
2018-03-20T05:45:25.604Z,1.57
2018-03-20T05:46:35.662Z,1.57
2018-03-20T05:47:45.520Z,1.64
2018-03-20T05:48:55.579Z,1.66
2018-03-20T05:50:05.652Z,1.69
2018-03-20T05:51:15.813Z,1.71
2018-03-20T05:52:25.603Z,1.69
2018-03-20T05:53:35.655Z,1.75
2018-03-20T05:54:45.767Z,1.69
2018-03-20T05:55:55.845Z,1.72
2018-03-20T05:57:05.381Z,1.76
2018-03-20T05:58:15.449Z,1.66
2018-03-20T05:59:25.266Z,1.86
2018-03-20T06:00:35.069Z,1.71
2018-03-20T06:01:44.335Z,1.72
2018-03-20T06:02:54.445Z,1.82
2018-03-20T06:04:04.518Z,1.79
2018-03-20T06:05:14.584Z,1.84
2018-03-20T06:06:24.382Z,1.74
2018-03-20T06:07:34.450Z,1.79
2018-03-20T06:08:44.523Z,1.84
2018-03-20T06:09:54.590Z,1.92
2018-03-20T06:11:04.372Z,1.92
2018-03-20T06:12:14.158Z,1.83
2018-03-20T06:13:24.220Z,1.89
2018-03-20T06:14:34.275Z,1.87
2018-03-20T06:15:44.329Z,1.89
2018-03-20T06:16:54.120Z,1.9
2018-03-20T06:18:03.962Z,2.02
2018-03-20T06:19:14.030Z,2.01
2018-03-20T06:20:23.822Z,2.05
2018-03-20T06:21:33.621Z,2.01
2018-03-20T06:22:43.435Z,2.13
2018-03-20T06:23:53.240Z,2.09
2018-03-20T06:25:03.045Z,2.13
2018-03-20T06:26:13.115Z,2.2
2018-03-20T06:27:23.201Z,2.11
2018-03-20T06:28:33.243Z,2.2
2018-03-20T06:29:43.312Z,2.16
2018-03-20T06:30:53.376Z,2.22
2018-03-20T06:32:03.442Z,2.24
2018-03-20T06:33:13.496Z,2.3
2018-03-20T06:34:23.572Z,2.33
2018-03-20T06:35:33.379Z,2.4
2018-03-20T06:36:43.420Z,2.49
2018-03-20T06:37:53.208Z,2.58
2018-03-20T06:39:03.333Z,2.66
2018-03-20T06:40:13.133Z,2.73
2018-03-20T06:41:23.194Z,2.8
2018-03-20T06:42:33.279Z,2.77
2018-03-20T06:43:43.062Z,2.83
2018-03-20T06:44:53.118Z,2.87
2018-03-20T06:46:02.910Z,2.98
2018-03-20T06:47:12.716Z,3.05
2018-03-20T06:48:22.772Z,3.14
2018-03-20T06:49:32.835Z,3.16
2018-03-20T06:50:42.629Z,3.3
2018-03-20T06:51:52.432Z,3.29
2018-03-20T06:53:02.240Z,3.46
2018-03-20T06:54:12.321Z,3.42
2018-03-20T06:55:22.121Z,3.42
2018-03-20T06:56:32.197Z,3.42
2018-03-20T06:57:42.265Z,3.4
2018-03-20T06:58:52.328Z,3.48
2018-03-20T07:00:02.149Z,3.42
2018-03-20T07:01:11.967Z,3.32
2018-03-20T07:02:21.763Z,3.37
2018-03-20T07:03:31.296Z,3.35
2018-03-20T07:04:41.101Z,3.42
2018-03-20T07:05:51.172Z,3.4
2018-03-20T07:07:01.252Z,3.39
2018-03-20T07:08:11.058Z,3.37
2018-03-20T07:09:21.115Z,3.35
2018-03-20T07:10:31.221Z,3.34
2018-03-20T07:11:41.014Z,3.26
2018-03-20T07:12:50.832Z,3.4
2018-03-20T07:14:00.641Z,3.37
2018-03-20T07:15:10.170Z,3.42
2018-03-20T07:16:19.709Z,3.53
2018-03-20T07:17:29.787Z,3.54
2018-03-20T07:18:39.574Z,3.66
2018-03-20T07:19:49.630Z,3.69
2018-03-20T07:20:59.689Z,3.79
2018-03-20T07:22:09.293Z,3.89
2018-03-20T07:23:19.359Z,3.82
2018-03-20T07:24:29.179Z,3.97
2018-03-20T07:25:39.240Z,3.84
2018-03-20T07:26:49.312Z,3.92
2018-03-20T07:27:59.432Z,3.81
2018-03-20T07:29:09.241Z,3.81
2018-03-20T07:30:19.314Z,3.82
2018-03-20T07:31:28.844Z,3.79
2018-03-20T07:32:38.908Z,3.71
2018-03-20T07:33:48.225Z,3.82
2018-03-20T07:34:57.775Z,3.82
2018-03-20T07:36:07.847Z,3.9
2018-03-20T07:37:17.643Z,4.03
2018-03-20T07:38:27.174Z,4.02
2018-03-20T07:39:36.985Z,4.11
2018-03-20T07:40:47.058Z,4.18
2018-03-20T07:41:56.596Z,4.22
2018-03-20T07:43:06.382Z,4.2
2018-03-20T07:44:16.463Z,4.24
2018-03-20T07:45:26.314Z,4.15
2018-03-20T07:46:36.379Z,4.21
2018-03-20T07:47:46.424Z,4.28
2018-03-20T07:48:56.474Z,4.42
2018-03-20T07:50:06.270Z,4.51
2018-03-20T07:51:16.079Z,4.57
2018-03-20T07:52:25.934Z,4.6
2018-03-20T07:53:35.998Z,4.6
2018-03-20T07:54:45.798Z,4.71
2018-03-20T07:55:55.588Z,4.76
2018-03-20T07:57:04.892Z,4.78
2018-03-20T07:58:14.152Z,4.88
2018-03-20T07:59:23.955Z,4.78
2018-03-20T08:00:33.773Z,4.94
2018-03-20T08:01:43.958Z,4.98
2018-03-20T08:02:53.807Z,4.92
2018-03-20T08:04:03.637Z,4.87
2018-03-20T08:05:13.705Z,4.85
2018-03-20T08:06:23.516Z,4.87
2018-03-20T08:07:33.051Z,4.85
2018-03-20T08:08:42.592Z,4.84
2018-03-20T08:09:52.378Z,4.84
2018-03-20T08:11:01.951Z,4.94
2018-03-20T08:12:12.014Z,4.85
2018-03-20T08:13:21.835Z,4.79
2018-03-20T08:14:31.954Z,4.75
2018-03-20T08:15:41.764Z,4.76
2018-03-20T08:16:51.775Z,4.64
2018-03-20T08:18:01.600Z,4.68
2018-03-20T08:19:11.715Z,4.53
2018-03-20T08:20:21.779Z,4.5
2018-03-20T08:21:31.576Z,4.54
2018-03-20T08:22:40.852Z,4.38
2018-03-20T08:23:50.637Z,4.4
2018-03-20T08:25:00.444Z,4.35
2018-03-20T08:26:10.240Z,4.22
2018-03-20T08:27:20.314Z,4.17
2018-03-20T08:28:30.134Z,4.24
2018-03-20T08:29:40.192Z,4.29
2018-03-20T08:30:50.005Z,4.18
2018-03-20T08:31:59.600Z,4.18
2018-03-20T08:33:09.691Z,4.32
2018-03-20T08:34:19.699Z,4.35
2018-03-20T08:35:29.771Z,4.42
2018-03-20T08:36:39.960Z,4.35
2018-03-20T08:37:50.227Z,4.51
2018-03-20T08:39:00.292Z,4.51
2018-03-20T08:40:10.367Z,4.44
2018-03-20T08:41:20.428Z,4.61
2018-03-20T08:42:30.508Z,4.66
2018-03-20T08:43:40.668Z,4.74
2018-03-20T08:44:50.495Z,4.71
2018-03-20T08:46:00.315Z,4.72
2018-03-20T08:47:10.128Z,4.87
2018-03-20T08:48:19.441Z,4.88
2018-03-20T08:49:29.245Z,4.87
2018-03-20T08:50:39.305Z,4.9
2018-03-20T08:51:49.368Z,4.98
2018-03-20T08:52:59.192Z,4.97
2018-03-20T08:54:08.986Z,5.13
2018-03-20T08:55:18.800Z,5.12
2018-03-20T08:56:28.349Z,5.03
2018-03-20T08:57:38.248Z,5.2
2018-03-20T08:58:48.345Z,5.21
2018-03-20T08:59:58.409Z,5.12
2018-03-20T09:01:07.944Z,5.2
2018-03-20T09:02:18.225Z,5.37
2018-03-20T09:03:27.782Z,5.36
2018-03-20T09:04:37.064Z,5.42
2018-03-20T09:05:46.620Z,5.42
2018-03-20T09:06:56.518Z,5.46
2018-03-20T09:08:05.808Z,5.52
2018-03-20T09:09:15.881Z,5.49
2018-03-20T09:10:25.667Z,5.57
2018-03-20T09:11:35.756Z,5.48
2018-03-20T09:12:45.566Z,5.46
2018-03-20T09:13:55.397Z,5.41
2018-03-20T09:15:05.481Z,5.37
2018-03-20T09:16:15.586Z,5.41
2018-03-20T09:17:25.674Z,5.36
2018-03-20T09:18:35.270Z,5.46
2018-03-20T09:19:45.358Z,5.37
2018-03-20T09:20:55.419Z,5.31
2018-03-20T09:22:04.944Z,5.37
2018-03-20T09:23:15.217Z,5.37
2018-03-20T09:24:25.386Z,5.41
2018-03-20T09:25:35.595Z,5.41
2018-03-20T09:26:45.669Z,5.34
2018-03-20T09:27:55.751Z,5.3
2018-03-20T09:29:05.561Z,5.37
2018-03-20T09:30:15.677Z,5.45
2018-03-20T09:31:25.225Z,5.44
2018-03-20T09:32:35.307Z,5.49
2018-03-20T09:33:45.419Z,5.57
2018-03-20T09:34:55.210Z,5.67
2018-03-20T09:36:05.067Z,5.69
2018-03-20T09:37:15.131Z,5.75
2018-03-20T09:38:24.660Z,5.88
2018-03-20T09:39:34.716Z,5.85
2018-03-20T09:40:44.268Z,5.75
2018-03-20T09:41:53.818Z,5.75
2018-03-20T09:43:03.621Z,5.6
2018-03-20T09:44:13.414Z,5.6
2018-03-20T09:45:23.211Z,5.64
2018-03-20T09:46:32.998Z,5.78
2018-03-20T09:47:42.964Z,5.88
2018-03-20T09:48:53.030Z,5.88
2018-03-20T09:50:02.824Z,5.99
2018-03-20T09:51:12.900Z,5.96
2018-03-20T09:52:22.955Z,5.89
2018-03-20T09:53:33.069Z,5.82
2018-03-20T09:54:43.134Z,5.64
2018-03-20T09:55:52.671Z,5.57
2018-03-20T09:57:02.216Z,5.64
2018-03-20T09:58:11.754Z,5.57
2018-03-20T09:59:21.336Z,5.52
2018-03-20T10:00:31.142Z,5.44
2018-03-20T10:01:40.686Z,5.48
2018-03-20T10:02:50.491Z,5.7
2018-03-20T10:04:00.571Z,5.81
2018-03-20T10:05:10.621Z,5.95
2018-03-20T10:06:20.166Z,5.98
2018-03-20T10:07:30.228Z,6.02
2018-03-20T10:08:39.766Z,6.17
2018-03-20T10:09:49.826Z,6.39
2018-03-20T10:10:59.675Z,6.58
2018-03-20T10:12:09.746Z,6.76
2018-03-20T10:13:19.808Z,6.82
2018-03-20T10:14:29.884Z,6.75
2018-03-20T10:15:38.916Z,6.79
2018-03-20T10:16:49.062Z,6.75
2018-03-20T10:17:58.867Z,6.68
2018-03-20T10:19:08.915Z,6.85
2018-03-20T10:20:19.268Z,6.82
2018-03-20T10:21:29.075Z,6.73
2018-03-20T10:22:38.644Z,6.67
2018-03-20T10:23:48.166Z,6.54
2018-03-20T10:24:58.030Z,6.42
2018-03-20T10:26:07.586Z,6.29
2018-03-20T10:27:17.159Z,6.15
2018-03-20T10:28:27.015Z,5.89
2018-03-20T10:29:36.393Z,5.99
2018-03-20T10:30:46.195Z,5.81
2018-03-20T10:31:55.991Z,5.7
2018-03-20T10:33:05.798Z,5.72
2018-03-20T10:34:15.344Z,5.7
2018-03-20T10:35:25.546Z,5.64
2018-03-20T10:36:35.398Z,5.57
2018-03-20T10:37:45.207Z,5.6
2018-03-20T10:38:55.034Z,5.48
2018-03-20T10:40:05.147Z,5.42
2018-03-20T10:41:14.941Z,5.41
2018-03-20T10:42:24.471Z,5.3
2018-03-20T10:43:34.263Z,5.44
2018-03-20T10:44:43.803Z,5.39
2018-03-20T10:45:53.332Z,5.45
2018-03-20T10:47:02.915Z,5.45
2018-03-20T10:48:12.771Z,5.6
2018-03-20T10:49:22.843Z,5.69
2018-03-20T10:50:32.916Z,5.8
2018-03-20T10:51:42.722Z,5.88
2018-03-20T10:52:52.512Z,6.02
2018-03-20T10:54:02.577Z,6.29
2018-03-20T10:55:12.426Z,6.44
2018-03-20T10:56:22.199Z,6.7
2018-03-20T10:57:31.998Z,6.79
2018-03-20T10:58:41.527Z,7
2018-03-20T10:59:51.323Z,6.98
2018-03-20T11:01:00.869Z,7.08
2018-03-20T11:02:10.412Z,6.97
2018-03-20T11:03:20.469Z,7.04
2018-03-20T11:04:30.547Z,7.22
2018-03-20T11:05:40.622Z,7.36
2018-03-20T11:06:50.408Z,7.47
2018-03-20T11:08:00.496Z,7.61
2018-03-20T11:09:10.026Z,7.89
2018-03-20T11:10:20.071Z,8.06
2018-03-20T11:11:29.922Z,8.11
2018-03-20T11:12:39.460Z,8.26
2018-03-20T11:13:49.574Z,8.28
2018-03-20T11:14:59.425Z,8.46
2018-03-20T11:16:09.237Z,8.74
2018-03-20T11:17:19.299Z,8.83
2018-03-20T11:18:28.842Z,8.94
2018-03-20T11:19:38.667Z,8.98
2018-03-20T11:20:48.740Z,8.95
2018-03-20T11:21:58.295Z,8.97
2018-03-20T11:23:08.359Z,8.79
2018-03-20T11:24:17.896Z,8.77
2018-03-20T11:25:27.959Z,8.77
2018-03-20T11:26:37.541Z,8.79
2018-03-20T11:27:47.348Z,8.86
2018-03-20T11:28:56.890Z,8.79
2018-03-20T11:30:06.944Z,8.72
2018-03-20T11:31:16.756Z,8.53
2018-03-20T11:32:26.864Z,8.5
2018-03-20T11:33:36.404Z,8.46
2018-03-20T11:34:46.501Z,8.31
2018-03-20T11:35:56.313Z,8.17
2018-03-20T11:37:06.358Z,8.06
2018-03-20T11:38:16.228Z,7.89
2018-03-20T11:39:26.297Z,7.92
2018-03-20T11:40:36.353Z,7.74
2018-03-20T11:41:46.429Z,7.64
2018-03-20T11:42:56.474Z,7.56
2018-03-20T11:44:06.590Z,7.37
2018-03-20T11:45:16.663Z,7.45
2018-03-20T11:46:26.729Z,7.59
2018-03-20T11:47:36.789Z,7.71
2018-03-20T11:48:46.843Z,7.89
2018-03-20T11:49:56.974Z,8.03
2018-03-20T11:51:07.068Z,8.1
2018-03-20T11:52:17.147Z,8.19
2018-03-20T11:53:26.942Z,8.17
2018-03-20T11:54:37.011Z,8.42
2018-03-20T11:55:46.602Z,8.4
2018-03-20T11:56:56.409Z,8.44
2018-03-20T11:58:06.484Z,8.42
2018-03-20T11:59:16.554Z,8.34
2018-03-20T12:00:26.636Z,8.22
2018-03-20T12:01:36.698Z,8.34
2018-03-20T12:02:46.224Z,8.14
2018-03-20T12:03:56.295Z,8.11
2018-03-20T12:05:06.095Z,8.24
2018-03-20T12:06:16.156Z,8.21
2018-03-20T12:07:26.273Z,8.22
2018-03-20T12:08:36.348Z,8.24
2018-03-20T12:09:46.143Z,8.29
2018-03-20T12:10:56.215Z,8.35
2018-03-20T12:12:05.750Z,8.49
2018-03-20T12:13:15.880Z,8.65
2018-03-20T12:14:25.979Z,8.57
2018-03-20T12:15:36.053Z,8.65
2018-03-20T12:16:46.152Z,8.62
2018-03-20T12:17:55.956Z,8.58
2018-03-20T12:19:06.025Z,8.6
2018-03-20T12:20:16.094Z,8.58
2018-03-20T12:21:26.159Z,8.69
2018-03-20T12:22:35.955Z,8.72
2018-03-20T12:23:46.014Z,8.82
2018-03-20T12:24:56.140Z,8.82
2018-03-20T12:26:06.209Z,8.82
2018-03-20T12:27:16.040Z,8.77
2018-03-20T12:28:26.111Z,8.9
2018-03-20T12:29:35.918Z,8.9
2018-03-20T12:30:45.454Z,8.95
2018-03-20T12:31:55.312Z,8.97
2018-03-20T12:33:05.470Z,8.94
2018-03-20T12:34:14.752Z,8.76
2018-03-20T12:35:24.823Z,8.64
2018-03-20T12:36:34.903Z,8.49
2018-03-20T12:37:44.708Z,8.54
2018-03-20T12:38:54.587Z,8.47
2018-03-20T12:40:04.375Z,8.47
2018-03-20T12:41:13.906Z,8.54
2018-03-20T12:42:24.016Z,8.47
2018-03-20T12:43:33.813Z,8.52
2018-03-20T12:44:43.100Z,8.36
2018-03-20T12:45:52.359Z,8.32
2018-03-20T12:47:02.174Z,8.17
2018-03-20T12:48:12.020Z,8.03
2018-03-20T12:49:21.818Z,7.91
2018-03-20T12:50:31.634Z,7.77
2018-03-20T12:51:41.433Z,7.55
2018-03-20T12:52:51.508Z,7.54
2018-03-20T12:54:01.108Z,7.52
2018-03-20T12:55:11.227Z,7.51
2018-03-20T12:56:21.041Z,7.45
2018-03-20T12:57:30.314Z,7.4
2018-03-20T12:58:39.852Z,7.4
2018-03-20T12:59:49.735Z,7.37
2018-03-20T13:00:59.809Z,7.21
2018-03-20T13:02:09.080Z,7.33
2018-03-20T13:03:19.184Z,7.36
2018-03-20T13:04:28.979Z,7.51
2018-03-20T13:05:38.583Z,7.71
2018-03-20T13:06:48.437Z,7.91
2018-03-20T13:07:58.620Z,8.06
2018-03-20T13:09:08.489Z,8.24
2018-03-20T13:10:18.042Z,8.47
2018-03-20T13:11:28.180Z,8.53
2018-03-20T13:12:37.972Z,8.62
2018-03-20T13:13:48.247Z,8.62
2018-03-20T13:14:58.330Z,8.61
2018-03-20T13:16:08.404Z,8.58
2018-03-20T13:17:18.523Z,8.5
2018-03-20T13:18:28.590Z,8.57
2018-03-20T13:19:38.408Z,8.42
2018-03-20T13:20:48.234Z,8.5
2018-03-20T13:21:58.021Z,8.43
2018-03-20T13:23:08.162Z,8.5
2018-03-20T13:24:18.430Z,8.47
2018-03-20T13:25:28.483Z,8.5
2018-03-20T13:26:38.546Z,8.43
2018-03-20T13:27:48.617Z,8.44
2018-03-20T13:28:58.733Z,8.46
2018-03-20T13:30:08.533Z,8.44
2018-03-20T13:31:18.602Z,8.42
2018-03-20T13:32:28.393Z,8.35
2018-03-20T13:33:37.671Z,8.22
2018-03-20T13:34:47.521Z,8.24
2018-03-20T13:35:57.589Z,8.17
2018-03-20T13:37:07.647Z,8.21
2018-03-20T13:38:17.708Z,8.17
2018-03-20T13:39:27.776Z,8.22
2018-03-20T13:40:37.868Z,8.22
2018-03-20T13:41:47.925Z,8.16
2018-03-20T13:42:57.992Z,8.24
2018-03-20T13:44:08.080Z,8.14
2018-03-20T13:45:18.134Z,8.16
2018-03-20T13:46:28.243Z,8.16
2018-03-20T13:47:38.036Z,8.16
2018-03-20T13:48:48.098Z,8.13
2018-03-20T13:49:58.153Z,8.25
2018-03-20T13:51:08.211Z,8.19
2018-03-20T13:52:18.349Z,8.19
2018-03-20T13:53:28.419Z,8.14
2018-03-20T13:54:38.231Z,8.21
2018-03-20T13:55:48.025Z,8.28
2018-03-20T13:56:58.090Z,8.39
2018-03-20T13:58:08.152Z,8.22
2018-03-20T13:59:18.216Z,8.32
2018-03-20T14:00:28.009Z,8.34
2018-03-20T14:01:38.091Z,8.44
2018-03-20T14:02:48.155Z,8.52
2018-03-20T14:03:57.950Z,8.39
2018-03-20T14:05:08.022Z,8.42
2018-03-20T14:06:17.604Z,8.35
2018-03-20T14:07:27.399Z,8.39
2018-03-20T14:08:37.466Z,8.29
2018-03-20T14:09:47.600Z,8.29
2018-03-20T14:10:57.656Z,8.32
2018-03-20T14:12:07.478Z,8.29
2018-03-20T14:13:17.293Z,8.36
2018-03-20T14:14:27.130Z,8.44
2018-03-20T14:15:36.728Z,8.42
2018-03-20T14:16:46.550Z,8.35
2018-03-20T14:17:56.096Z,8.39
2018-03-20T14:19:05.879Z,8.46
2018-03-20T14:20:15.686Z,8.46
2018-03-20T14:21:25.000Z,8.49
2018-03-20T14:22:34.832Z,8.4
2018-03-20T14:23:44.940Z,8.32
2018-03-20T14:24:54.790Z,8.22
2018-03-20T14:26:04.659Z,8.17
2018-03-20T14:27:14.286Z,8.22
2018-03-20T14:28:23.824Z,8.21
2018-03-20T14:29:33.648Z,8.06
2018-03-20T14:30:43.731Z,7.91
2018-03-20T14:31:53.567Z,7.95
2018-03-20T14:33:03.691Z,7.83
2018-03-20T14:34:13.496Z,7.78
2018-03-20T14:35:23.310Z,7.74
2018-03-20T14:36:33.199Z,7.64
2018-03-20T14:37:43.050Z,7.73
2018-03-20T14:38:53.122Z,7.73
2018-03-20T14:40:02.923Z,7.71
2018-03-20T14:41:12.763Z,7.67
2018-03-20T14:42:22.304Z,7.63
2018-03-20T14:43:31.626Z,7.61
2018-03-20T14:44:41.777Z,7.68
2018-03-20T14:45:51.579Z,7.55
2018-03-20T14:47:01.121Z,7.64
2018-03-20T14:48:10.404Z,7.59
2018-03-20T14:49:20.243Z,7.56
2018-03-20T14:50:30.046Z,7.56
2018-03-20T14:51:39.586Z,7.44
2018-03-20T14:52:49.123Z,7.47
2018-03-20T14:53:58.649Z,7.48
2018-03-20T14:55:08.458Z,7.51
2018-03-20T14:56:18.269Z,7.47
2018-03-20T14:57:28.127Z,7.51
2018-03-20T14:58:37.956Z,7.52
2018-03-20T14:59:48.008Z,7.41
2018-03-20T15:00:58.078Z,7.36
2018-03-20T15:02:08.163Z,7.37
2018-03-20T15:03:17.996Z,7.23
2018-03-20T15:04:28.091Z,7.15
2018-03-20T15:05:38.150Z,7.09
2018-03-20T15:06:47.954Z,7.04
2018-03-20T15:07:57.769Z,7
2018-03-20T15:09:07.604Z,6.95
2018-03-20T15:10:17.707Z,6.8
2018-03-20T15:11:27.258Z,6.79
2018-03-20T15:12:37.059Z,6.73
2018-03-20T15:13:47.141Z,6.79
2018-03-20T15:14:57.268Z,6.64
2018-03-20T15:16:07.134Z,6.61
2018-03-20T15:17:17.290Z,6.58
2018-03-20T15:18:26.879Z,6.58
2018-03-20T15:19:36.668Z,6.49
2018-03-20T15:20:46.212Z,6.47
2018-03-20T15:21:56.274Z,6.55
2018-03-20T15:23:06.347Z,6.57
2018-03-20T15:24:16.417Z,6.55
2018-03-20T15:25:26.214Z,6.55
2018-03-20T15:26:36.080Z,6.7
2018-03-20T15:27:45.956Z,6.52
2018-03-20T15:28:56.045Z,6.62
2018-03-20T15:30:06.123Z,6.61
2018-03-20T15:31:15.938Z,6.62
2018-03-20T15:32:25.219Z,6.6
2018-03-20T15:33:35.019Z,6.68
2018-03-20T15:34:45.099Z,6.64
2018-03-20T15:35:54.893Z,6.75
2018-03-20T15:37:05.089Z,6.7
2018-03-20T15:38:15.264Z,6.72
2018-03-20T15:39:24.878Z,6.72
2018-03-20T15:40:34.942Z,6.73
2018-03-20T15:41:44.735Z,6.67
2018-03-20T15:42:54.264Z,6.64
2018-03-20T15:44:03.791Z,6.57
2018-03-20T15:45:13.576Z,6.46
2018-03-20T15:46:23.646Z,6.43
2018-03-20T15:47:33.718Z,6.29
2018-03-20T15:48:43.779Z,6.37
2018-03-20T15:49:53.846Z,6.29
2018-03-20T15:51:03.888Z,6.26
2018-03-20T15:52:13.415Z,6.21
2018-03-20T15:53:23.227Z,6.28
2018-03-20T15:54:33.287Z,6.18
2018-03-20T15:55:42.835Z,6.2
2018-03-20T15:56:52.713Z,6.06
2018-03-20T15:58:02.771Z,6
2018-03-20T15:59:12.834Z,6.03
2018-03-20T16:00:22.908Z,6.03
2018-03-20T16:01:32.593Z,6
2018-03-20T16:02:42.188Z,6.05
2018-03-20T16:03:52.354Z,6.05